Time;durP1;ratioP1;P1;durP2;ratioP2;P2;SDS_P1;SDS_P2;PMS_P1;PMS_P2;Temp;Humidity;BMP_temperature;BMP_pressure;BME280_temperature;BME280_humidity;BME280_pressure;Samples;Min_cycle;Max_cycle;Signal;HPM_P1;HPM_P2
2021/07/16 00:02:10;;;;;;;21.17;14.80;;;22.30;90.40;;;;;;5013783;28;20022;-79
2021/07/16 00:04:36;;;;;;;18.33;15.45;;;22.30;90.50;;;;;;5030823;28;20052;-79
2021/07/16 00:07:02;;;;;;;22.25;16.25;;;22.40;90.60;;;;;;5016959;28;20033;-79
2021/07/16 00:09:28;;;;;;;18.88;16.33;;;22.30;90.50;;;;;;5028883;28;20040;-78
2021/07/16 00:11:54;;;;;;;18.23;16.33;;;22.30;90.50;;;;;;5016881;28;20034;-78
2021/07/16 00:14:19;;;;;;;18.50;14.35;;;22.40;90.40;;;;;;5034431;28;20427;-78
2021/07/16 00:16:45;;;;;;;17.85;16.05;;;22.30;90.40;;;;;;5034617;28;20040;-78
2021/07/16 00:19:11;;;;;;;20.17;15.23;;;22.30;90.60;;;;;;5034499;28;20096;-79
2021/07/16 00:21:37;;;;;;;19.17;15.40;;;22.30;90.60;;;;;;5034419;28;20084;-79
2021/07/16 00:24:03;;;;;;;19.35;14.68;;;22.30;90.70;;;;;;5034659;28;20021;-78
2021/07/16 00:26:30;;;;;;;18.98;14.98;;;22.30;90.80;;;;;;5034623;28;20026;-78
2021/07/16 00:28:56;;;;;;;17.33;15.32;;;22.30;90.70;;;;;;5034594;28;20022;-79
2021/07/16 00:31:22;;;;;;;19.67;16.35;;;22.20;90.70;;;;;;5034480;28;20119;-79
2021/07/16 00:33:48;;;;;;;21.30;15.60;;;22.30;90.70;;;;;;5034066;28;20447;-79
2021/07/16 00:36:14;;;;;;;21.02;15.07;;;22.20;90.70;;;;;;5033938;28;20139;-77
2021/07/16 00:38:41;;;;;;;23.02;15.13;;;22.20;90.80;;;;;;5033992;28;20076;-78
2021/07/16 00:41:07;;;;;;;19.92;15.75;;;22.20;90.80;;;;;;5016159;28;20029;-78
2021/07/16 00:43:33;;;;;;;21.80;15.88;;;22.20;90.80;;;;;;5034100;28;20375;-79
2021/07/16 00:45:58;;;;;;;19.42;15.70;;;22.20;90.80;;;;;;5033322;28;20075;-80
2021/07/16 00:48:24;;;;;;;19.20;14.95;;;22.20;90.60;;;;;;5034119;28;20026;-79
2021/07/16 00:50:52;;;;;;;17.00;14.27;;;22.20;90.70;;;;;;5033860;28;20088;-79
2021/07/16 00:53:20;;;;;;;18.92;15.77;;;22.20;90.70;;;;;;5033955;28;20476;-79
2021/07/16 00:55:46;;;;;;;19.08;15.02;;;22.20;90.80;;;;;;5039647;28;20017;-79
2021/07/16 00:58:14;;;;;;;18.48;15.95;;;22.20;90.80;;;;;;5033675;28;20061;-80
2021/07/16 01:00:40;;;;;;;24.00;16.42;;;22.20;90.90;;;;;;5033868;28;20017;-78
2021/07/16 01:03:06;;;;;;;18.38;16.38;;;22.20;90.80;;;;;;5033671;28;20079;-80
2021/07/16 01:05:32;;;;;;;18.45;15.63;;;22.20;90.50;;;;;;5027950;28;20094;-80
2021/07/16 01:07:58;;;;;;;18.52;16.67;;;22.20;90.40;;;;;;5033592;28;20032;-79
2021/07/16 01:11:01;;;;;;;22.75;15.82;;;22.20;90.40;;;;;;5033609;28;20466;-80
2021/07/16 01:13:28;;;;;;;19.35;15.50;;;22.20;90.30;;;;;;5031033;28;20053;-80
2021/07/16 01:15:55;;;;;;;24.00;15.50;;;22.20;90.20;;;;;;5033764;28;20033;-80
2021/07/16 01:18:21;;;;;;;;;;;22.20;90.10;;;;;;5033769;28;20022;-79
2021/07/16 01:20:47;;;;;;;18.55;15.80;;;22.20;89.80;;;;;;5033443;28;19939;-80
2021/07/16 01:23:23;;;;;;;20.40;15.68;;;22.20;90.20;;;;;;5033374;28;20053;-79
2021/07/16 01:25:50;;;;;;;16.77;15.15;;;22.20;90.10;;;;;;5022146;28;20033;-78
2021/07/16 01:28:16;;;;;;;20.35;15.63;;;22.20;90.10;;;;;;5033216;28;20044;-78
2021/07/16 01:30:43;;;;;;;22.60;16.73;;;22.20;90.20;;;;;;5015305;28;20128;-78
2021/07/16 01:33:09;;;;;;;18.08;16.20;;;22.20;90.30;;;;;;5033194;28;20032;-78
2021/07/16 01:35:35;;;;;;;18.35;15.13;;;22.20;90.20;;;;;;5032864;28;20031;-78
2021/07/16 01:38:02;;;;;;;19.08;15.27;;;22.20;90.00;;;;;;5033289;28;20410;-78
2021/07/16 01:40:32;;;;;;;20.30;15.77;;;22.30;90.00;;;;;;5032825;28;20421;-78
2021/07/16 01:42:58;;;;;;;17.80;15.15;;;22.30;89.80;;;;;;5033163;28;20021;-79
2021/07/16 01:45:30;;;;;;;23.55;16.48;;;22.30;89.40;;;;;;5032959;28;20399;-79
2021/07/16 01:47:59;;;;;;;18.33;15.02;;;22.30;89.10;;;;;;5025159;28;20092;-77
2021/07/16 01:50:27;;;;;;;18.35;15.35;;;22.30;89.10;;;;;;5032722;28;20040;-78
2021/07/16 01:52:54;;;;;;;16.73;13.32;;;22.40;89.00;;;;;;5032096;28;20022;-79
2021/07/16 01:55:21;;;;;;;19.52;15.70;;;22.40;88.70;;;;;;5039568;28;20490;-78
2021/07/16 01:57:48;;;;;;;;;;;22.50;88.50;;;;;;5037744;28;20021;-79
2021/07/16 02:00:17;;;;;;;19.70;14.70;;;22.50;88.20;;;;;;5032620;28;19920;-78
2021/07/16 02:02:51;;;;;;;18.27;14.88;;;22.50;88.20;;;;;;5033857;28;20119;-78
2021/07/16 02:05:19;;;;;;;16.33;14.68;;;22.50;88.30;;;;;;5032498;28;20029;-78
2021/07/16 02:07:45;;;;;;;;;;;22.60;88.60;;;;;;5033128;28;20116;-77
2021/07/16 02:10:11;;;;;;;15.90;14.30;;;22.60;88.30;;;;;;5035737;28;19913;-79
2021/07/16 02:12:41;;;;;;;16.25;14.27;;;22.60;88.40;;;;;;5038663;28;20487;-78
2021/07/16 02:15:14;;;;;;;18.40;15.48;;;22.60;88.10;;;;;;5032213;28;20046;-79
2021/07/16 02:17:40;;;;;;;17.70;15.10;;;22.80;88.00;;;;;;5032694;28;20018;-78
2021/07/16 02:20:18;;;;;;;16.55;14.80;;;22.80;87.50;;;;;;5033232;28;20022;-77
2021/07/16 02:22:44;;;;;;;18.70;14.45;;;22.90;87.20;;;;;;5045987;28;20062;-76
2021/07/16 02:25:11;;;;;;;16.98;14.57;;;22.90;87.30;;;;;;5046385;28;20062;-76
2021/07/16 02:27:37;;;;;;;16.63;14.93;;;22.90;87.10;;;;;;5039615;28;20024;-77
2021/07/16 02:30:06;;;;;;;16.08;14.15;;;22.90;87.10;;;;;;5036868;28;20049;-78
2021/07/16 02:32:33;;;;;;;16.33;14.60;;;23.00;87.50;;;;;;5032172;28;20056;-77
2021/07/16 02:34:58;;;;;;;;;;;23.00;88.00;;;;;;5032407;28;20109;-77
2021/07/16 02:37:24;;;;;;;21.80;15.35;;;23.00;87.50;;;;;;5032350;28;19971;-78
2021/07/16 02:39:50;;;;;;;20.02;13.70;;;23.10;87.70;;;;;;5032752;28;20032;-77
2021/07/16 02:42:16;;;;;;;18.98;15.95;;;23.10;87.50;;;;;;5034015;28;20040;-77
2021/07/16 02:44:42;;;;;;;16.10;14.38;;;23.20;87.30;;;;;;5034738;28;20057;-78
2021/07/16 02:47:08;;;;;;;15.18;13.55;;;23.20;87.10;;;;;;5034007;28;20497;-79
2021/07/16 02:49:33;;;;;;;17.70;14.35;;;23.30;87.10;;;;;;5015086;28;20021;-78
2021/07/16 02:51:59;;;;;;;18.25;14.63;;;23.40;87.00;;;;;;5032550;28;20108;-79
2021/07/16 02:54:25;;;;;;;16.88;14.55;;;23.50;86.60;;;;;;5013273;28;20064;-76
2021/07/16 02:56:51;;;;;;;18.10;14.77;;;23.50;86.50;;;;;;5032029;28;20133;-77
2021/07/16 02:59:23;;;;;;;19.75;14.60;;;23.60;86.30;;;;;;5031930;28;20030;-79
2021/07/16 03:01:54;;;;;;;21.77;15.52;;;23.80;85.40;;;;;;5032034;28;20022;-78
2021/07/16 03:04:20;;;;;;;21.80;14.98;;;23.90;84.10;;;;;;5013956;28;20402;-78
2021/07/16 03:06:46;;;;;;;18.45;14.90;;;23.90;83.90;;;;;;5032041;28;20021;-78
2021/07/16 03:09:12;;;;;;;19.42;14.93;;;24.00;83.40;;;;;;5033817;28;20083;-77
2021/07/16 03:11:38;;;;;;;19.02;15.70;;;24.00;83.20;;;;;;5035862;28;20505;-78
2021/07/16 03:14:05;;;;;;;18.33;13.93;;;24.00;83.30;;;;;;5035577;28;20046;-78
2021/07/16 03:16:31;;;;;;;19.83;15.47;;;24.00;83.70;;;;;;5018043;28;20025;-78
2021/07/16 03:19:01;;;;;;;20.60;15.95;;;24.10;84.20;;;;;;5035839;28;20032;-78
2021/07/16 03:21:27;;;;;;;21.52;15.93;;;24.20;84.50;;;;;;5035548;28;20068;-78
2021/07/16 03:23:52;;;;;;;17.73;15.52;;;24.30;83.70;;;;;;5035697;28;20049;-79
2021/07/16 03:26:18;;;;;;;19.98;15.05;;;24.30;83.00;;;;;;5035763;28;20406;-79
2021/07/16 03:28:45;;;;;;;19.73;17.02;;;24.40;82.60;;;;;;5043885;28;20026;-79
2021/07/16 03:31:11;;;;;;;20.43;17.43;;;24.50;82.00;;;;;;5035598;28;20455;-79
2021/07/16 03:33:37;;;;;;;17.08;15.27;;;24.50;81.80;;;;;;5035068;28;20020;-79
2021/07/16 03:36:05;;;;;;;20.17;16.10;;;24.50;81.40;;;;;;5036085;28;20025;-78
2021/07/16 03:38:31;;;;;;;19.48;17.13;;;24.50;81.20;;;;;;5035966;28;20013;-79
2021/07/16 03:40:59;;;;;;;20.55;15.23;;;24.50;81.10;;;;;;5035232;28;20121;-79
2021/07/16 03:43:25;;;;;;;16.98;14.88;;;24.60;81.30;;;;;;5035294;28;20081;-79
2021/07/16 03:45:52;;;;;;;22.33;16.02;;;24.60;80.80;;;;;;5033756;28;20020;-80
2021/07/16 03:48:19;;;;;;;18.40;15.50;;;24.80;80.90;;;;;;5035048;28;20105;-79
2021/07/16 03:50:47;;;;;;;18.67;16.20;;;24.80;80.40;;;;;;5035042;28;20469;-78
2021/07/16 03:53:13;;;;;;;22.02;17.15;;;24.80;80.30;;;;;;5034739;28;20079;-79
2021/07/16 03:55:40;;;;;;;18.45;16.02;;;24.90;80.30;;;;;;5034885;28;20060;-78
2021/07/16 03:58:06;;;;;;;19.55;15.63;;;24.90;79.50;;;;;;5034871;28;20112;-78
2021/07/16 04:00:32;;;;;;;20.98;16.73;;;25.00;79.90;;;;;;5035398;28;20510;-79
2021/07/16 04:03:00;;;;;;;20.60;16.88;;;25.00;80.00;;;;;;5035305;28;20014;-78
2021/07/16 04:05:26;;;;;;;20.10;14.98;;;25.10;78.90;;;;;;5018439;28;20153;-78
2021/07/16 04:08:00;;;;;;;22.17;15.85;;;25.20;78.90;;;;;;5036346;28;20580;-79
2021/07/16 04:10:26;;;;;;;17.48;14.85;;;25.20;78.40;;;;;;5035208;28;20072;-79
2021/07/16 04:12:54;;;;;;;18.45;14.80;;;25.30;77.70;;;;;;5035090;28;20060;-78
2021/07/16 04:15:20;;;;;;;17.35;14.88;;;25.30;77.70;;;;;;5034755;28;20053;-78
2021/07/16 04:17:47;;;;;;;21.25;15.32;;;25.40;77.60;;;;;;5034903;28;20327;-77
2021/07/16 04:20:13;;;;;;;21.85;16.10;;;25.50;77.70;;;;;;5033866;28;20103;-79
2021/07/16 04:22:39;;;;;;;20.60;16.20;;;25.50;76.80;;;;;;5034654;28;20033;-77
2021/07/16 04:25:07;;;;;;;17.05;15.23;;;25.60;75.80;;;;;;5034568;28;20255;-78
2021/07/16 04:27:33;;;;;;;19.40;15.43;;;25.70;75.50;;;;;;5034567;28;20033;-78
2021/07/16 04:29:59;;;;;;;18.27;15.85;;;25.70;75.50;;;;;;5034753;28;20144;-78
2021/07/16 04:32:25;;;;;;;19.02;16.48;;;25.70;75.60;;;;;;5034160;28;20506;-78
2021/07/16 04:34:51;;;;;;;20.45;15.85;;;25.70;75.40;;;;;;5034553;28;20040;-78
2021/07/16 04:37:17;;;;;;;20.27;15.25;;;25.70;75.30;;;;;;5031689;28;20017;-78
2021/07/16 04:39:43;;;;;;;23.25;15.45;;;25.80;75.20;;;;;;5032815;28;20017;-77
2021/07/16 04:42:09;;;;;;;17.70;15.90;;;25.80;74.90;;;;;;5030299;28;20433;-77
2021/07/16 04:44:35;;;;;;;18.30;15.43;;;25.90;75.00;;;;;;5034398;28;20765;-79
2021/07/16 04:47:01;;;;;;;25.60;15.48;;;25.90;74.60;;;;;;5034668;28;20021;-77
2021/07/16 04:49:27;;;;;;;24.48;16.75;;;26.10;74.80;;;;;;5034432;28;20025;-76
2021/07/16 04:51:54;;;;;;;19.50;15.95;;;26.20;74.40;;;;;;5035423;28;20047;-79
2021/07/16 04:54:20;;;;;;;21.50;15.88;;;26.30;74.30;;;;;;5043893;28;20105;-77
2021/07/16 04:56:46;;;;;;;20.67;14.98;;;26.40;73.30;;;;;;5039530;28;20421;-79
2021/07/16 04:59:12;;;;;;;20.67;15.57;;;26.50;73.30;;;;;;5034478;28;20029;-79
2021/07/16 05:01:38;;;;;;;16.52;14.60;;;26.60;72.40;;;;;;5034274;28;20021;-78
2021/07/16 05:04:04;;;;;;;18.83;14.85;;;26.50;72.50;;;;;;5029846;28;20033;-78
2021/07/16 05:06:30;;;;;;;18.30;16.35;;;26.60;72.80;;;;;;5033769;28;20502;-77
2021/07/16 05:08:56;;;;;;;19.30;13.88;;;26.70;72.70;;;;;;5034025;28;20026;-80
2021/07/16 05:11:22;;;;;;;18.33;14.63;;;27.00;72.00;;;;;;5033754;28;20489;-79
2021/07/16 05:13:49;;;;;;;18.92;15.00;;;27.50;70.80;;;;;;5033608;28;20037;-79
2021/07/16 05:16:16;;;;;;;17.20;13.25;;;28.40;67.50;;;;;;5033631;28;20025;-80
2021/07/16 05:18:43;;;;;;;21.23;14.68;;;29.30;65.70;;;;;;5033857;28;20063;-79
2021/07/16 05:21:10;;;;;;;16.13;14.43;;;30.10;62.70;;;;;;5034508;28;20021;-79
2021/07/16 05:23:36;;;;;;;15.07;13.52;;;31.00;60.40;;;;;;5033699;28;20422;-80
2021/07/16 05:26:03;;;;;;;20.40;14.20;;;31.70;58.20;;;;;;5016097;28;20025;-78
2021/07/16 05:28:29;;;;;;;;;;;32.30;55.90;;;;;;5033929;28;20101;-79
2021/07/16 05:30:55;;;;;;;15.45;12.27;;;32.70;57.60;;;;;;5033267;28;19984;-78
2021/07/16 05:33:22;;;;;;;15.65;13.40;;;33.30;53.70;;;;;;5015600;28;20490;-78
2021/07/16 05:35:48;;;;;;;;;;;33.80;51.80;;;;;;5033346;28;20021;-80
2021/07/16 05:38:14;;;;;;;13.32;11.88;;;34.10;53.20;;;;;;5033272;28;19916;-80
2021/07/16 05:40:40;;;;;;;15.17;12.23;;;34.50;50.10;;;;;;5033169;28;20052;-78
2021/07/16 05:43:08;;;;;;;16.60;11.05;;;34.90;48.70;;;;;;5012032;28;20037;-80
2021/07/16 05:45:38;;;;;;;12.18;10.77;;;35.50;47.70;;;;;;5028164;28;20018;-80
2021/07/16 05:48:09;;;;;;;15.40;10.43;;;36.20;46.50;;;;;;5015253;28;20076;-80
2021/07/16 05:50:39;;;;;;;12.27;9.43;;;36.60;45.10;;;;;;5031279;28;20041;-78
2021/07/16 05:53:06;;;;;;;11.25;10.20;;;36.90;45.00;;;;;;5033927;28;20071;-79
2021/07/16 05:55:32;;;;;;;10.73;9.65;;;37.40;43.90;;;;;;5033486;28;20076;-79
2021/07/16 05:58:04;;;;;;;12.10;10.73;;;37.70;42.30;;;;;;5033080;28;20235;-80
2021/07/16 06:00:30;;;;;;;12.13;10.02;;;37.40;42.50;;;;;;5032818;28;20459;-81
2021/07/16 06:02:56;;;;;;;12.05;9.75;;;37.00;42.50;;;;;;5032493;28;20088;-79
2021/07/16 06:05:23;;;;;;;14.57;9.52;;;36.80;42.90;;;;;;5015154;28;20143;-79
2021/07/16 06:07:49;;;;;;;13.57;10.10;;;37.00;42.90;;;;;;5015056;28;20025;-78
2021/07/16 06:10:15;;;;;;;12.40;9.45;;;37.30;42.50;;;;;;5032578;28;20491;-77
2021/07/16 06:12:41;;;;;;;10.15;9.15;;;37.70;42.10;;;;;;5015304;28;20026;-78
2021/07/16 06:15:09;;;;;;;11.85;8.57;;;38.60;41.10;;;;;;5014933;28;20053;-80
2021/07/16 06:17:35;;;;;;;10.82;9.38;;;39.40;40.00;;;;;;5033050;28;20057;-79
2021/07/16 06:20:02;;;;;;;9.80;8.77;;;40.20;38.80;;;;;;5032346;28;20021;-79
2021/07/16 06:22:27;;;;;;;10.13;8.55;;;40.80;37.80;;;;;;5011441;28;20113;-79
2021/07/16 06:24:53;;;;;;;9.18;8.38;;;40.70;37.50;;;;;;5025754;28;20108;-80
2021/07/16 06:27:19;;;;;;;11.80;9.45;;;41.40;36.60;;;;;;5032302;28;20030;-79
2021/07/16 06:29:46;;;;;;;9.70;8.75;;;42.00;36.20;;;;;;5032743;28;20428;-79
2021/07/16 06:32:11;;;;;;;10.05;8.95;;;42.60;35.30;;;;;;5032330;28;20125;-79
2021/07/16 06:34:38;;;;;;;8.50;7.63;;;42.90;34.80;;;;;;5032411;28;20105;-82
2021/07/16 06:37:03;;;;;;;;;;;43.40;34.50;;;;;;5015065;28;20025;-79
2021/07/16 06:39:29;;;;;;;9.68;7.72;;;43.90;35.80;;;;;;5032725;28;19913;-79
2021/07/16 06:41:55;;;;;;;10.27;9.13;;;44.10;33.60;;;;;;5031840;28;20109;-79
2021/07/16 06:44:21;;;;;;;;;;;44.30;33.20;;;;;;5032115;28;20036;-77
2021/07/16 06:46:47;;;;;;;9.70;7.78;;;44.20;34.20;;;;;;5014383;28;19912;-78
2021/07/16 06:49:13;;;;;;;;;;;43.90;33.00;;;;;;5032658;28;20568;-79
2021/07/16 06:51:39;;;;;;;9.30;7.30;;;43.90;34.50;;;;;;5032385;28;19913;-79
2021/07/16 06:54:05;;;;;;;;;;;44.40;32.80;;;;;;5032671;28;20441;-79
2021/07/16 06:56:31;;;;;;;9.57;7.53;;;44.80;34.10;;;;;;5032224;28;19905;-79
2021/07/16 06:59:00;;;;;;;9.55;8.63;;;44.50;32.80;;;;;;5032220;28;20336;-79
2021/07/16 07:01:26;;;;;;;8.95;8.15;;;44.60;32.30;;;;;;5032074;28;20026;-78
2021/07/16 07:03:52;;;;;;;;;;;44.60;32.10;;;;;;5032601;28;20026;-79
2021/07/16 07:06:18;;;;;;;10.65;8.15;;;43.40;33.40;;;;;;5031694;28;19995;-78
2021/07/16 07:08:44;;;;;;;8.38;7.50;;;43.00;33.60;;;;;;5032482;28;20033;-79
2021/07/16 07:11:10;;;;;;;12.93;8.27;;;42.20;34.00;;;;;;5030347;28;20088;-78
2021/07/16 07:13:35;;;;;;;;;;;41.50;35.40;;;;;;5031513;28;20033;-77
2021/07/16 07:16:02;;;;;;;10.80;9.60;;;41.50;36.10;;;;;;5031233;28;20314;-78
2021/07/16 07:18:28;;;;;;;9.77;8.70;;;41.80;35.50;;;;;;5014015;28;20021;-80
2021/07/16 07:20:54;;;;;;;;;;;42.40;34.60;;;;;;5021867;28;20018;-79
2021/07/16 07:23:20;;;;;;;12.32;9.07;;;40.80;35.00;;;;;;5049767;28;19944;-87
2021/07/16 07:25:47;;;;;;;9.27;8.38;;;39.70;36.50;;;;;;5043256;28;20017;-79
2021/07/16 07:28:13;;;;;;;9.07;8.18;;;39.90;37.30;;;;;;5038194;28;20075;-84
2021/07/16 07:30:39;;;;;;;9.77;8.98;;;41.20;36.10;;;;;;5032643;28;20037;-83
2021/07/16 07:33:05;;;;;;;;;;;42.20;34.90;;;;;;5033729;28;20116;-83
2021/07/16 07:35:33;;;;;;;9.80;8.88;;;42.60;35.40;;;;;;5031513;28;20366;-83
2021/07/16 07:38:00;;;;;;;15.38;9.40;;;43.00;33.90;;;;;;5022043;28;20387;-85
2021/07/16 07:40:26;;;;;;;12.30;9.05;;;42.20;34.40;;;;;;5023135;28;20416;-84
2021/07/16 07:42:51;;;;;;;;;;;42.30;34.50;;;;;;5036017;28;20032;-83
2021/07/16 07:45:17;;;;;;;10.48;8.50;;;42.90;33.70;;;;;;5035367;28;19905;-84
2021/07/16 07:47:43;;;;;;;;;;;43.10;33.30;;;;;;5033876;28;20098;-85
2021/07/16 07:50:18;;;;;;;8.77;7.93;;;44.10;33.90;;;;;;5032981;28;19916;-84
2021/07/16 07:52:47;;;;;;;8.35;7.65;;;44.50;32.00;;;;;;5014705;28;20025;-83
2021/07/16 07:55:14;;;;;;;7.78;7.07;;;46.10;31.00;;;;;;5033138;28;20053;-82
2021/07/16 07:57:40;;;;;;;8.77;8.00;;;47.30;29.80;;;;;;5036369;28;20026;-83
2021/07/16 08:00:13;;;;;;;8.57;7.68;;;48.10;29.60;;;;;;5020033;28;20022;-82
2021/07/16 08:02:39;;;;;;;9.80;8.70;;;48.10;29.30;;;;;;5035331;28;20030;-84
2021/07/16 08:05:06;;;;;;;8.10;7.05;;;47.80;29.40;;;;;;5026431;28;20018;-84
2021/07/16 08:07:32;;;;;;;8.48;7.68;;;48.30;29.10;;;;;;5036006;28;20037;-84
2021/07/16 08:09:58;;;;;;;8.43;7.63;;;48.20;28.70;;;;;;5035241;28;20039;-83
2021/07/16 08:12:24;;;;;;;7.95;7.25;;;47.90;28.70;;;;;;5017382;28;20036;-84
2021/07/16 08:14:51;;;;;;;8.40;7.65;;;47.10;28.90;;;;;;5035349;28;20068;-83
2021/07/16 08:17:17;;;;;;;9.13;7.82;;;46.90;29.40;;;;;;5035324;28;20029;-83
2021/07/16 08:19:42;;;;;;;8.57;7.63;;;46.90;29.40;;;;;;5035636;28;20481;-84
2021/07/16 08:22:09;;;;;;;9.38;7.70;;;45.60;29.40;;;;;;5035057;28;20048;-84
2021/07/16 08:24:34;;;;;;;8.27;7.57;;;44.80;30.10;;;;;;5035721;28;20030;-84
2021/07/16 08:27:01;;;;;;;9.13;8.20;;;44.30;30.10;;;;;;5016275;28;20022;-84
2021/07/16 08:29:26;;;;;;;9.88;8.25;;;43.90;31.10;;;;;;5035272;28;20033;-83
2021/07/16 08:31:52;;;;;;;9.00;8.32;;;43.90;31.50;;;;;;5035282;28;20026;-84
2021/07/16 08:34:18;;;;;;;8.45;7.80;;;44.90;30.40;;;;;;5035787;28;20475;-82
2021/07/16 08:36:44;;;;;;;9.57;7.95;;;45.20;30.10;;;;;;5035813;28;20439;-84
2021/07/16 08:39:11;;;;;;;10.00;7.75;;;46.00;29.60;;;;;;5037607;28;20030;-83
2021/07/16 08:41:37;;;;;;;7.00;6.40;;;47.30;29.10;;;;;;5038284;28;20101;-84
2021/07/16 08:44:03;;;;;;;10.32;7.70;;;47.40;28.00;;;;;;5038148;28;20116;-83
2021/07/16 08:46:30;;;;;;;7.68;7.07;;;47.30;27.90;;;;;;5020146;28;20033;-81
2021/07/16 08:48:59;;;;;;;7.80;6.80;;;46.90;28.50;;;;;;5036493;28;20021;-84
2021/07/16 08:51:25;;;;;;;8.52;7.72;;;47.60;28.50;;;;;;5034580;28;20394;-82
2021/07/16 08:53:55;;;;;;;9.13;8.32;;;47.00;28.50;;;;;;5035054;28;20053;-82
2021/07/16 08:56:22;;;;;;;8.88;8.07;;;46.20;29.10;;;;;;5034689;28;20054;-83
2021/07/16 08:58:48;;;;;;;9.68;7.93;;;46.30;29.30;;;;;;5036487;28;20025;-83
2021/07/16 09:01:14;;;;;;;8.93;8.00;;;47.20;29.00;;;;;;5035754;28;20095;-85
2021/07/16 09:03:59;;;;;;;8.20;7.50;;;48.30;28.60;;;;;;5035842;28;20121;-83
2021/07/16 09:06:54;;;;;;;8.30;7.50;;;48.70;28.10;;;;;;5033856;28;20025;-84
2021/07/16 09:09:25;;;;;;;8.40;7.25;;;48.50;28.10;;;;;;5034506;28;20029;-84
2021/07/16 09:11:54;;;;;;;8.43;6.85;;;48.30;27.80;;;;;;5017491;28;20060;-84
2021/07/16 09:14:25;;;;;;;9.38;8.60;;;47.40;28.10;;;;;;5034900;28;20049;-85
2021/07/16 09:17:04;;;;;;;10.07;9.13;;;46.70;28.40;;;;;;5034571;28;20021;-83
2021/07/16 09:19:33;;;;;;;12.80;9.55;;;44.40;29.30;;;;;;5016850;28;20048;-85
2021/07/16 09:22:11;;;;;;;11.10;10.13;;;;;;;;;;5034530;28;20049;-83
2021/07/16 09:24:40;;;;;;;11.75;9.95;;;40.90;33.00;;;;;;5034173;28;20506;-84
2021/07/16 09:27:32;;;;;;;9.55;8.75;;;42.00;33.40;;;;;;5034433;28;20029;-84
2021/07/16 09:30:16;;;;;;;10.55;9.48;;;43.50;32.30;;;;;;5016990;28;20139;-85
2021/07/16 09:32:50;;;;;;;13.10;9.65;;;44.50;31.10;;;;;;5021745;28;20033;-84
2021/07/16 09:35:33;;;;;;;9.23;8.50;;;45.10;31.30;;;;;;5034117;28;20048;-84
2021/07/16 09:38:05;;;;;;;9.65;8.77;;;45.60;29.60;;;;;;5045028;28;20052;-84
2021/07/16 09:40:45;;;;;;;9.35;8.55;;;44.30;29.60;;;;;;5034035;28;20139;-84
2021/07/16 09:43:11;;;;;;;10.43;9.35;;;41.90;31.10;;;;;;5034041;28;20360;-84
2021/07/16 09:45:43;;;;;;;12.27;11.13;;;39.60;33.60;;;;;;5034232;28;20127;-84
2021/07/16 09:48:29;;;;;;;11.65;10.75;;;38.10;35.90;;;;;;5034071;28;20022;-84
2021/07/16 09:51:21;;;;;;;11.75;10.60;;;37.00;37.50;;;;;;5034077;28;20478;-85
2021/07/16 09:53:54;;;;;;;11.95;10.85;;;38.10;37.60;;;;;;5041619;28;20036;-83
2021/07/16 09:56:25;;;;;;;12.13;10.77;;;40.00;36.60;;;;;;5030821;28;20029;-83
2021/07/16 09:59:13;;;;;;;10.63;9.63;;;41.10;34.10;;;;;;5053421;28;20036;-82
2021/07/16 10:01:41;;;;;;;11.95;8.75;;;41.30;33.60;;;;;;5004529;28;20069;-84
2021/07/16 10:04:23;;;;;;;9.85;8.32;;;41.50;32.60;;;;;;5010288;28;20064;-83
2021/07/16 10:06:53;;;;;;;9.15;8.32;;;41.80;32.10;;;;;;5034452;28;20115;-83
2021/07/16 10:09:21;;;;;;;7.80;7.10;;;42.80;31.70;;;;;;5033375;28;20017;-82
2021/07/16 10:11:49;;;;;;;9.55;7.78;;;43.90;29.90;;;;;;5033271;28;20029;-84
2021/07/16 10:14:15;;;;;;;9.02;8.25;;;44.90;29.20;;;;;;5033098;28;20059;-84
2021/07/16 10:16:46;;;;;;;7.85;7.22;;;45.50;29.00;;;;;;5032925;28;20029;-84
2021/07/16 10:19:13;;;;;;;8.63;7.82;;;45.90;28.80;;;;;;5014729;28;20398;-83
2021/07/16 10:21:43;;;;;;;7.03;6.25;;;45.70;28.50;;;;;;5033001;28;20017;-85
2021/07/16 10:24:10;;;;;;;8.52;7.60;;;43.90;27.80;;;;;;5020210;28;20025;-84
2021/07/16 10:26:36;;;;;;;9.18;7.50;;;41.40;29.30;;;;;;5020677;28;20049;-83
2021/07/16 10:29:02;;;;;;;;;;;40.60;30.30;;;;;;5032354;28;20018;-84
2021/07/16 10:31:32;;;;;;;6.80;6.20;;;41.20;30.40;;;;;;5037123;28;19920;-84
2021/07/16 10:34:04;;;;;;;8.48;6.82;;;42.00;29.60;;;;;;5033509;28;20013;-84
2021/07/16 10:36:44;;;;;;;8.27;7.60;;;41.90;28.90;;;;;;5035452;28;20051;-84
2021/07/16 10:39:21;;;;;;;8.88;7.75;;;40.20;30.30;;;;;;5015164;28;20060;-84
2021/07/16 10:41:47;;;;;;;8.75;7.85;;;38.90;31.80;;;;;;5032910;28;20101;-82
2021/07/16 10:44:15;;;;;;;8.77;7.97;;;37.70;32.80;;;;;;5035000;28;20021;-83
2021/07/16 10:46:44;;;;;;;9.43;8.63;;;36.70;34.20;;;;;;5038489;28;20021;-81
2021/07/16 10:49:12;;;;;;;10.00;9.00;;;36.10;35.30;;;;;;5040515;28;20075;-84
2021/07/16 10:51:40;;;;;;;9.23;8.32;;;35.50;36.10;;;;;;5033051;28;20025;-84
2021/07/16 10:54:11;;;;;;;10.63;9.52;;;35.10;37.20;;;;;;5032597;28;20382;-83
2021/07/16 10:56:47;;;;;;;12.52;9.70;;;34.70;37.80;;;;;;5033132;28;20535;-84
2021/07/16 10:59:42;;;;;;;10.90;9.57;;;34.50;38.40;;;;;;5033045;28;20032;-83
2021/07/16 11:02:43;;;;;;;9.57;8.55;;;34.10;38.80;;;;;;5015796;28;20063;-84
2021/07/16 11:05:34;;;;;;;10.05;9.15;;;34.10;39.40;;;;;;5014577;28;20026;-84
2021/07/16 11:08:01;;;;;;;12.90;9.10;;;34.10;38.90;;;;;;5012938;28;20025;-84
2021/07/16 11:10:47;;;;;;;9.32;8.43;;;33.90;38.20;;;;;;5015371;28;20076;-83
2021/07/16 11:13:40;;;;;;;9.60;8.55;;;33.80;38.00;;;;;;5031964;28;20021;-83
2021/07/16 11:16:15;;;;;;;10.05;8.23;;;33.60;37.60;;;;;;5032750;28;20025;-84
2021/07/16 11:18:59;;;;;;;9.93;9.02;;;33.40;38.20;;;;;;5014234;28;20424;-83
2021/07/16 11:21:40;;;;;;;11.50;9.38;;;33.30;38.10;;;;;;5032781;28;20130;-83
2021/07/16 11:24:35;;;;;;;9.90;8.52;;;33.20;38.90;;;;;;5020062;28;20025;-84
2021/07/16 11:27:11;;;;;;;13.38;8.73;;;33.10;38.80;;;;;;5030594;28;20028;-82
2021/07/16 11:29:43;;;;;;;11.00;10.00;;;33.00;39.10;;;;;;5023490;28;20088;-84
2021/07/16 11:32:13;;;;;;;9.55;7.85;;;32.90;39.70;;;;;;5018528;28;20045;-81
2021/07/16 11:34:50;;;;;;;8.95;8.05;;;33.00;38.30;;;;;;5036486;28;20021;-82
2021/07/16 11:37:22;;;;;;;11.88;8.82;;;33.10;37.80;;;;;;5036926;28;20025;-83
2021/07/16 11:39:53;;;;;;;10.13;9.13;;;33.00;39.10;;;;;;5036588;28;20013;-84
2021/07/16 11:42:19;;;;;;;10.77;9.55;;;32.90;39.70;;;;;;5035825;28;20025;-83
2021/07/16 11:44:45;;;;;;;10.87;9.97;;;32.90;40.20;;;;;;5036269;28;20151;-84
2021/07/16 11:47:16;;;;;;;9.97;9.07;;;32.90;41.20;;;;;;5036089;28;20057;-84
2021/07/16 11:49:53;;;;;;;11.68;10.02;;;32.80;41.30;;;;;;5036025;28;20029;-83
2021/07/16 11:52:26;;;;;;;10.07;9.13;;;33.00;41.50;;;;;;5015294;28;20092;-84
2021/07/16 11:54:52;;;;;;;12.55;10.43;;;33.20;41.70;;;;;;5035864;28;20024;-84
2021/07/16 11:57:19;;;;;;;;;;;33.30;41.00;;;;;;5036511;28;20025;-84
2021/07/16 11:59:50;;;;;;;10.13;9.23;;;33.40;40.70;;;;;;5037281;28;19970;-83
2021/07/16 12:02:25;;;;;;;11.15;10.25;;;33.40;40.10;;;;;;5037708;28;20087;-84
2021/07/16 12:04:57;;;;;;;11.23;10.05;;;33.40;40.10;;;;;;5024146;28;20024;-83
2021/07/16 12:07:24;;;;;;;11.20;10.00;;;33.30;40.50;;;;;;5043150;28;20120;-82
2021/07/16 12:09:49;;;;;;;12.33;9.73;;;33.20;40.00;;;;;;5036682;28;20021;-82
2021/07/16 12:12:17;;;;;;;9.90;9.03;;;33.10;39.30;;;;;;5018538;28;20540;-83
2021/07/16 12:15:05;;;;;;;10.07;9.07;;;33.00;39.20;;;;;;5022583;28;20037;-84
2021/07/16 12:17:38;;;;;;;11.68;10.50;;;33.00;39.90;;;;;;5004311;28;20456;-83
2021/07/16 12:20:10;;;;;;;11.25;10.25;;;33.00;40.90;;;;;;5015715;28;20018;-82
2021/07/16 12:22:42;;;;;;;10.43;9.20;;;33.00;41.10;;;;;;5015837;28;20029;-83
2021/07/16 12:25:09;;;;;;;10.90;9.80;;;33.00;41.60;;;;;;5016191;28;20436;-85
2021/07/16 12:27:35;;;;;;;;;;;33.00;40.70;;;;;;5018705;28;20091;-84
2021/07/16 12:30:06;;;;;;;9.50;8.70;;;32.80;39.60;;;;;;5029679;28;19945;-83
2021/07/16 12:32:40;;;;;;;9.98;9.07;;;32.70;40.10;;;;;;5014316;28;20343;-83
2021/07/16 12:35:35;;;;;;;9.00;8.18;;;32.60;39.50;;;;;;5027622;28;20018;-83
2021/07/16 12:38:04;;;;;;;9.00;8.23;;;32.50;39.20;;;;;;5017125;28;20044;-83
2021/07/16 12:40:30;;;;;;;10.10;9.10;;;32.40;39.70;;;;;;5016872;28;20018;-82
2021/07/16 12:42:59;;;;;;;;;;;32.40;40.10;;;;;;5016488;28;20040;-83
2021/07/16 12:45:35;;;;;;;10.13;9.30;;;32.40;40.10;;;;;;5016481;28;19912;-83
2021/07/16 12:48:30;;;;;;;11.13;9.95;;;32.30;40.90;;;;;;4998186;28;20415;-84
2021/07/16 12:51:02;;;;;;;13.57;9.27;;;32.30;41.40;;;;;;5015526;28;20117;-82